Guernsey Island, United Kingdom
Current Conditions -  °F | °C
As of 11:20 AM on Tuesday 21 Oct 2014 (Local Time) from EGJB Reporting Station
Rain Showers Rain Showers  
Wind Chill: 55°   Ceiling: 3500
Heat Index: 55°   Visibility: 6mi
Dew Point: 46°   Wind: 29mph
Humidity: 72%   Direction: 290°WNW
Pressure: 29.94"   Gusts: 45mph
Location:  49.43°N, 2.6°W
Report Text: EGJB 211020Z 29025G39KT 9999 VCSH FEW018 BKN035 13/08 Q1014
Loading
Personal Weather Stations






























Interactive Weather Map New forecast layout! Learn more

10-Day Weather Forecast

Advertisements
Track Severe Weather on mobile